createdAt,value
2019-04-23T00:01:07.512Z,13.63
2019-04-23T00:02:03.760Z,13.52
2019-04-23T00:03:01.745Z,13.51
2019-04-23T00:04:01.075Z,13.55
2019-04-23T00:04:54.193Z,13.60
2019-04-23T00:06:07.351Z,13.59
2019-04-23T00:07:10.709Z,13.51
2019-04-23T00:08:09.597Z,13.54
2019-04-23T00:09:09.241Z,13.55
2019-04-23T00:10:03.489Z,13.54
2019-04-23T00:11:10.646Z,13.57
2019-04-23T00:12:01.820Z,13.57
2019-04-23T00:13:12.764Z,13.55
2019-04-23T00:15:08.831Z,13.49
2019-04-23T00:16:02.997Z,13.46
2019-04-23T00:16:59.689Z,13.54
2019-04-23T00:18:07.782Z,13.49
2019-04-23T00:18:56.087Z,13.52
2019-04-23T00:20:06.698Z,13.46
2019-04-23T00:20:57.827Z,13.46
2019-04-23T00:21:59.999Z,13.41
2019-04-23T00:24:37.471Z,13.42
2019-04-23T00:25:25.644Z,13.49
2019-04-23T00:27:11.199Z,13.38
2019-04-23T00:28:10.309Z,13.36
2019-04-23T00:29:07.959Z,13.41
2019-04-23T00:30:04.798Z,13.39
2019-04-23T00:31:18.555Z,13.28
2019-04-23T00:31:59.623Z,13.30
2019-04-23T00:33:05.258Z,13.28
2019-04-23T00:34:01.072Z,13.25
2019-04-23T00:34:59.618Z,13.30
2019-04-23T00:35:56.596Z,13.32
2019-04-23T00:37:01.625Z,13.28
2019-04-23T00:38:09.091Z,13.26
2019-04-23T00:38:59.260Z,13.20
2019-04-23T00:39:56.706Z,13.23
2019-04-23T00:40:59.362Z,13.28
2019-04-23T00:41:58.621Z,13.25
2019-04-23T00:43:04.117Z,13.23
2019-04-23T00:44:02.942Z,13.17
2019-04-23T00:44:56.287Z,13.12
2019-04-23T00:45:55.137Z,13.20
2019-04-23T00:47:01.251Z,13.15
2019-04-23T00:47:59.356Z,13.14
2019-04-23T00:49:05.578Z,13.11
2019-04-23T00:50:05.795Z,13.15
2019-04-23T00:51:09.244Z,13.07
2019-04-23T00:51:59.243Z,13.04
2019-04-23T00:52:57.702Z,13.08
2019-04-23T00:53:57.331Z,13.03
2019-04-23T00:55:07.642Z,13.04
2019-04-23T00:57:00.841Z,13.08
2019-04-23T00:58:08.596Z,13.03
2019-04-23T00:59:01.090Z,13.05
2019-04-23T01:00:05.106Z,13.03
2019-04-23T01:01:00.511Z,12.97
2019-04-23T01:02:59.802Z,12.93
2019-04-23T01:03:58.049Z,13.03
2019-04-23T01:05:05.164Z,13.03
2019-04-23T01:05:58.864Z,13.00
2019-04-23T01:06:58.056Z,13.03
2019-04-23T01:07:58.214Z,13.01
2019-04-23T01:09:22.165Z,13.01
2019-04-23T01:10:06.171Z,12.96
2019-04-23T01:12:03.081Z,12.90
2019-04-23T01:12:59.304Z,12.95
2019-04-23T01:13:53.028Z,12.92
2019-04-23T01:15:02.760Z,13.00
2019-04-23T01:16:01.034Z,12.95
2019-04-23T01:17:02.209Z,12.87
2019-04-23T01:18:06.641Z,12.90
2019-04-23T01:18:54.466Z,12.83
2019-04-23T01:20:03.432Z,12.87
2019-04-23T01:20:52.702Z,12.85
2019-04-23T01:21:38.956Z,12.86
2019-04-23T01:22:37.950Z,12.87
2019-04-23T01:23:44.608Z,12.87
2019-04-23T01:24:40.344Z,12.86
2019-04-23T01:25:51.366Z,12.86
2019-04-23T01:27:15.008Z,12.96
2019-04-23T01:28:05.861Z,12.83
2019-04-23T01:29:02.390Z,12.89
2019-04-23T01:30:17.898Z,12.85
2019-04-23T01:31:09.315Z,12.85
2019-04-23T01:31:57.410Z,12.85
2019-04-23T01:33:05.928Z,12.86
2019-04-23T01:34:07.255Z,12.82
2019-04-23T01:35:12.834Z,12.86
2019-04-23T01:36:20.664Z,12.85
2019-04-23T01:37:01.195Z,12.85
2019-04-23T01:38:02.150Z,12.74
2019-04-23T01:39:08.480Z,12.79
2019-04-23T01:40:04.263Z,12.75
2019-04-23T01:41:00.390Z,12.90
2019-04-23T01:42:16.820Z,12.74
2019-04-23T01:43:02.945Z,12.75
2019-04-23T01:43:56.321Z,12.72
2019-04-23T01:45:11.668Z,12.72
2019-04-23T01:46:01.259Z,12.77
2019-04-23T01:47:00.801Z,12.68
2019-04-23T01:47:59.764Z,12.82
2019-04-23T01:49:10.637Z,12.82
2019-04-23T01:50:08.196Z,12.79
2019-04-23T01:50:57.587Z,12.64
2019-04-23T01:52:08.436Z,12.75
2019-04-23T01:53:10.292Z,12.75
2019-04-23T01:54:01.763Z,12.77
2019-04-23T01:55:08.142Z,12.78
2019-04-23T01:56:20.291Z,12.74
2019-04-23T01:57:06.290Z,12.65
2019-04-23T01:58:24.003Z,12.74
2019-04-23T01:59:05.055Z,12.77
2019-04-23T02:00:14.108Z,12.65
2019-04-23T02:02:05.232Z,12.70
2019-04-23T02:03:01.047Z,12.74
2019-04-23T02:05:09.391Z,12.67
2019-04-23T02:07:05.877Z,12.57
2019-04-23T02:08:03.557Z,12.57
2019-04-23T02:09:10.071Z,12.65
2019-04-23T02:10:08.349Z,12.65
2019-04-23T02:11:09.839Z,12.67
2019-04-23T02:12:04.378Z,12.64
2019-04-23T02:14:05.449Z,12.64
2019-04-23T02:15:03.387Z,12.60
2019-04-23T02:15:57.159Z,12.65
2019-04-23T02:17:04.122Z,12.59
2019-04-23T02:18:08.069Z,12.62
2019-04-23T02:19:07.599Z,12.52
2019-04-23T02:20:14.705Z,12.62
2019-04-23T02:21:00.670Z,12.60
2019-04-23T02:22:03.718Z,12.53
2019-04-23T02:23:13.703Z,12.47
2019-04-23T02:23:57.305Z,12.57
2019-04-23T02:25:03.575Z,12.50
2019-04-23T02:26:02.975Z,12.47
2019-04-23T02:27:09.834Z,12.49
2019-04-23T02:28:07.560Z,12.52
2019-04-23T02:29:29.963Z,12.46
2019-04-23T02:30:17.828Z,12.42
2019-04-23T02:33:17.610Z,12.52
2019-04-23T02:34:21.333Z,12.50
2019-04-23T02:35:34.466Z,12.45
2019-04-23T02:37:19.223Z,12.41
2019-04-23T02:40:13.694Z,12.37
2019-04-23T02:41:12.946Z,12.41
2019-04-23T02:43:15.214Z,12.31
2019-04-23T02:45:09.430Z,12.39
2019-04-23T02:46:08.171Z,12.31
2019-04-23T02:47:25.401Z,12.23
2019-04-23T02:49:20.506Z,12.29
2019-04-23T02:50:24.317Z,12.31
2019-04-23T02:51:10.784Z,12.29
2019-04-23T02:52:21.658Z,12.31
2019-04-23T02:53:14.448Z,12.27
2019-04-23T02:54:16.370Z,12.23
2019-04-23T02:55:27.174Z,12.37
2019-04-23T02:56:24.225Z,12.31
2019-04-23T02:57:05.661Z,12.31
2019-04-23T02:58:09.985Z,12.29
2019-04-23T03:02:24.462Z,12.28
2019-04-23T03:06:10.242Z,12.16
2019-04-23T03:07:13.992Z,12.21
2019-04-23T03:08:13.627Z,12.21
2019-04-23T03:09:15.221Z,12.14
2019-04-23T03:10:11.818Z,12.27
2019-04-23T03:11:24.980Z,12.13
2019-04-23T03:13:19.343Z,12.21
2019-04-23T03:14:09.576Z,12.19
2019-04-23T03:16:15.595Z,12.16
2019-04-23T03:18:23.495Z,12.04
2019-04-23T03:19:11.289Z,11.98
2019-04-23T03:20:14.761Z,12.02
2019-04-23T03:22:15.646Z,11.95
2019-04-23T03:23:22.037Z,11.94
2019-04-23T03:25:10.713Z,11.82
2019-04-23T03:26:16.045Z,11.82
2019-04-23T03:27:19.304Z,11.86
2019-04-23T03:28:09.887Z,11.76
2019-04-23T03:29:13.340Z,11.72
2019-04-23T03:34:52.134Z,11.72
2019-04-23T03:39:06.189Z,11.67
2019-04-23T03:41:15.424Z,11.57
2019-04-23T03:42:12.315Z,11.60
2019-04-23T03:43:19.920Z,11.54
2019-04-23T03:44:01.591Z,11.51
2019-04-23T03:46:16.288Z,11.46
2019-04-23T03:47:11.439Z,11.51
2019-04-23T03:48:17.523Z,11.57
2019-04-23T03:49:22.203Z,11.54
2019-04-23T03:51:01.362Z,11.49
2019-04-23T03:52:22.484Z,11.40
2019-04-23T03:53:03.353Z,11.47
2019-04-23T03:54:26.338Z,11.55
2019-04-23T03:55:10.189Z,11.51
2019-04-23T03:58:10.687Z,11.46
2019-04-23T03:59:10.696Z,11.51
2019-04-23T04:00:12.552Z,11.44
2019-04-23T04:01:11.876Z,11.44
2019-04-23T04:02:24.408Z,11.43
2019-04-23T04:05:10.722Z,11.43
2019-04-23T04:06:13.760Z,11.44
2019-04-23T04:07:18.574Z,11.43
2019-04-23T04:08:13.282Z,11.49
2019-04-23T04:09:21.084Z,11.49
2019-04-23T04:10:09.108Z,11.40
2019-04-23T04:11:10.823Z,11.44
2019-04-23T04:12:17.331Z,11.51
2019-04-23T04:13:11.911Z,11.42
2019-04-23T04:14:36.721Z,11.51
2019-04-23T04:15:21.232Z,11.44
2019-04-23T04:17:16.050Z,11.51
2019-04-23T04:18:23.997Z,11.47
2019-04-23T04:19:18.323Z,11.40
2019-04-23T04:22:23.750Z,11.37
2019-04-23T04:24:22.331Z,11.35
2019-04-23T04:25:06.861Z,11.37
2019-04-23T04:27:31.695Z,11.42
2019-04-23T04:28:12.049Z,11.40
2019-04-23T04:29:19.424Z,11.44
2019-04-23T04:31:03.195Z,11.42
2019-04-23T04:33:19.562Z,11.37
2019-04-23T04:34:21.432Z,11.44
2019-04-23T04:35:18.946Z,11.35
2019-04-23T04:36:13.950Z,11.47
2019-04-23T04:38:18.179Z,11.43
2019-04-23T04:39:03.295Z,11.40
2019-04-23T04:40:23.682Z,11.39
2019-04-23T04:41:05.721Z,11.39
2019-04-23T04:43:27.048Z,11.44
2019-04-23T04:44:38.314Z,11.43
2019-04-23T04:45:28.106Z,11.47
2019-04-23T04:46:30.580Z,11.55
2019-04-23T04:47:27.967Z,11.49
2019-04-23T04:48:00.505Z,11.44
2019-04-23T04:50:04.725Z,11.58
2019-04-23T04:52:22.208Z,11.46
2019-04-23T04:53:31.344Z,11.52
2019-04-23T04:54:21.366Z,11.61
2019-04-23T04:55:21.491Z,11.60
2019-04-23T04:56:14.495Z,11.64
2019-04-23T04:57:12.743Z,11.61
2019-04-23T04:58:07.257Z,11.54
2019-04-23T05:00:13.233Z,11.58
2019-04-23T05:01:16.093Z,11.52
2019-04-23T05:02:14.475Z,11.61
2019-04-23T05:03:22.224Z,11.62
2019-04-23T05:04:16.776Z,11.60
2019-04-23T05:05:31.318Z,11.61
2019-04-23T05:06:16.292Z,11.52
2019-04-23T05:07:11.386Z,11.51
2019-04-23T05:08:07.243Z,11.55
2019-04-23T05:12:14.323Z,11.60
2019-04-23T05:13:24.700Z,11.61
2019-04-23T05:14:23.465Z,11.72
2019-04-23T05:16:07.950Z,11.65
2019-04-23T05:17:13.561Z,11.73
2019-04-23T05:18:17.777Z,11.62
2019-04-23T05:19:19.769Z,11.73
2019-04-23T05:20:04.958Z,11.72
2019-04-23T05:24:58.570Z,11.73
2019-04-23T05:25:58.851Z,11.69
2019-04-23T05:27:07.151Z,11.85
2019-04-23T05:28:08.261Z,11.90
2019-04-23T05:30:11.725Z,12.02
2019-04-23T05:31:12.075Z,12.35
2019-04-23T05:31:58.186Z,12.74
2019-04-23T05:33:05.975Z,13.22
2019-04-23T05:34:06.076Z,13.79
2019-04-23T05:35:06.732Z,13.95
2019-04-23T05:36:14.756Z,14.20
2019-04-23T05:37:00.184Z,14.50
2019-04-23T05:38:30.041Z,14.65
2019-04-23T05:39:07.694Z,15.09
2019-04-23T05:40:02.615Z,15.75
2019-04-23T05:41:10.118Z,15.86
2019-04-23T05:42:02.025Z,16.08
2019-04-23T05:42:58.733Z,15.64
2019-04-23T05:44:02.029Z,15.56
2019-04-23T05:46:04.744Z,15.38
2019-04-23T05:47:11.687Z,15.80
2019-04-23T05:48:09.209Z,15.94
2019-04-23T05:49:09.666Z,15.59
2019-04-23T05:50:09.913Z,15.39
2019-04-23T05:51:04.174Z,15.46
2019-04-23T05:52:07.980Z,15.49
2019-04-23T05:53:05.319Z,15.44
2019-04-23T05:53:58.319Z,15.84
2019-04-23T05:55:02.641Z,15.60
2019-04-23T05:56:01.527Z,15.80
2019-04-23T05:58:06.761Z,15.86
2019-04-23T05:59:06.655Z,15.89
2019-04-23T06:00:05.380Z,15.76
2019-04-23T06:01:12.408Z,16.01
2019-04-23T06:02:07.546Z,16.33
2019-04-23T06:03:04.839Z,16.46
2019-04-23T06:05:05.965Z,16.76
2019-04-23T06:06:03.071Z,17.04
2019-04-23T06:07:20.553Z,16.76
2019-04-23T06:08:03.067Z,16.53
2019-04-23T06:11:01.978Z,16.94
2019-04-23T06:12:18.826Z,16.88
2019-04-23T06:12:59.590Z,16.81
2019-04-23T06:14:05.338Z,16.97
2019-04-23T06:14:57.395Z,17.28
2019-04-23T06:15:57.793Z,17.54
2019-04-23T06:17:08.955Z,17.31
2019-04-23T06:20:03.149Z,16.71
2019-04-23T06:21:02.503Z,17.03
2019-04-23T06:22:08.813Z,17.18
2019-04-23T06:23:05.697Z,17.12
2019-04-23T06:24:10.008Z,17.30
2019-04-23T06:24:57.912Z,17.44
2019-04-23T06:26:24.275Z,17.55
2019-04-23T06:28:03.526Z,17.23
2019-04-23T06:29:09.782Z,17.54
2019-04-23T06:30:17.988Z,17.38
2019-04-23T06:31:01.734Z,17.38
2019-04-23T06:32:16.751Z,17.70
2019-04-23T06:32:59.564Z,17.77
2019-04-23T06:34:05.587Z,16.83
2019-04-23T06:34:56.804Z,17.28
2019-04-23T06:36:05.515Z,17.44
2019-04-23T06:37:06.751Z,17.68
2019-04-23T06:38:22.958Z,17.59
2019-04-23T06:39:01.355Z,17.74
2019-04-23T06:40:03.192Z,17.41
2019-04-23T06:41:00.827Z,17.37
2019-04-23T06:42:03.979Z,17.44
2019-04-23T06:42:58.440Z,17.81
2019-04-23T06:44:09.280Z,18.17
2019-04-23T06:44:59.609Z,18.37
2019-04-23T06:46:01.452Z,17.95
2019-04-23T06:47:03.558Z,17.59
2019-04-23T06:48:01.948Z,17.97
2019-04-23T06:49:01.961Z,18.11
2019-04-23T06:49:58.165Z,18.14
2019-04-23T06:51:04.272Z,18.44
2019-04-23T06:52:08.412Z,18.45
2019-04-23T06:52:57.429Z,18.55
2019-04-23T06:54:00.016Z,18.91
2019-04-23T06:56:03.902Z,18.69
2019-04-23T06:57:10.678Z,18.18
2019-04-23T06:58:06.897Z,17.66
2019-04-23T06:58:58.899Z,17.43
2019-04-23T07:00:13.902Z,17.25
2019-04-23T07:01:00.379Z,17.55
2019-04-23T07:02:06.191Z,17.34
2019-04-23T07:03:00.127Z,17.58
2019-04-23T07:05:04.998Z,18.08
2019-04-23T07:06:11.990Z,17.64
2019-04-23T07:07:25.689Z,17.71
2019-04-23T07:08:02.747Z,17.95
2019-04-23T07:09:57.888Z,18.05
2019-04-23T07:11:07.879Z,18.05
2019-04-23T07:11:55.560Z,18.02
2019-04-23T07:13:06.342Z,17.66
2019-04-23T07:13:58.496Z,17.90
2019-04-23T07:15:13.391Z,17.41
2019-04-23T07:15:58.542Z,17.52
2019-04-23T07:16:58.577Z,17.28
2019-04-23T07:17:55.468Z,16.89
2019-04-23T07:19:04.384Z,16.56
2019-04-23T07:20:04.626Z,16.58
2019-04-23T07:21:06.787Z,16.45
2019-04-23T07:22:08.263Z,16.35
2019-04-23T07:23:05.219Z,15.89
2019-04-23T07:25:00.451Z,15.96
2019-04-23T07:26:09.290Z,15.78
2019-04-23T07:26:55.780Z,15.62
2019-04-23T07:28:06.924Z,15.19
2019-04-23T07:29:05.056Z,15.14
2019-04-23T07:30:11.533Z,15.19
2019-04-23T07:31:07.503Z,15.03
2019-04-23T07:32:07.074Z,15.19
2019-04-23T07:33:04.263Z,15.32
2019-04-23T07:36:06.990Z,15.71
2019-04-23T07:37:03.386Z,15.92
2019-04-23T07:38:09.314Z,16.04
2019-04-23T07:39:07.990Z,16.04
2019-04-23T07:40:17.674Z,15.69
2019-04-23T07:41:09.662Z,15.92
2019-04-23T07:42:24.709Z,16.05
2019-04-23T07:43:03.464Z,16.04
2019-04-23T07:44:08.576Z,15.90
2019-04-23T07:45:03.549Z,15.83
2019-04-23T07:46:05.357Z,15.69
2019-04-23T07:47:11.817Z,15.71
2019-04-23T07:48:09.022Z,15.84
2019-04-23T07:48:56.371Z,16.08
2019-04-23T07:50:11.326Z,16.41
2019-04-23T07:51:00.792Z,16.56
2019-04-23T07:52:02.741Z,16.24
2019-04-23T07:53:05.625Z,16.35
2019-04-23T07:54:09.568Z,16.46
2019-04-23T07:56:05.873Z,16.50
2019-04-23T07:57:09.306Z,16.49
2019-04-23T07:58:06.454Z,16.46
2019-04-23T07:59:04.201Z,16.76
2019-04-23T08:00:00.947Z,16.68
2019-04-23T08:01:14.184Z,16.94
2019-04-23T08:02:03.446Z,17.25
2019-04-23T08:03:08.655Z,17.33
2019-04-23T08:04:25.511Z,17.28
2019-04-23T08:05:11.640Z,17.33
2019-04-23T08:05:55.523Z,17.15
2019-04-23T08:07:03.305Z,17.18
2019-04-23T08:08:03.533Z,17.21
2019-04-23T08:09:03.595Z,17.51
2019-04-23T08:10:00.665Z,17.63
2019-04-23T08:11:25.870Z,17.79
2019-04-23T08:12:02.872Z,17.38
2019-04-23T08:12:59.587Z,17.36
2019-04-23T08:14:04.921Z,17.16
2019-04-23T08:15:01.625Z,17.18
2019-04-23T08:16:06.953Z,17.18
2019-04-23T08:16:58.138Z,17.28
2019-04-23T08:18:00.210Z,17.49
2019-04-23T08:19:00.539Z,17.77
2019-04-23T08:19:59.661Z,17.95
2019-04-23T08:21:06.643Z,17.68
2019-04-23T08:22:07.200Z,17.59
2019-04-23T08:23:04.620Z,17.56
2019-04-23T08:26:13.530Z,17.46
2019-04-23T08:26:59.558Z,17.75
2019-04-23T08:27:55.944Z,17.79
2019-04-23T08:29:06.356Z,17.79
2019-04-23T08:29:55.696Z,17.96
2019-04-23T08:30:59.137Z,17.79
2019-04-23T08:32:05.460Z,17.55
2019-04-23T08:32:57.412Z,17.64
2019-04-23T08:34:05.540Z,17.81
2019-04-23T08:35:04.432Z,17.75
2019-04-23T08:36:04.080Z,17.82
2019-04-23T08:37:05.084Z,17.95
2019-04-23T08:38:12.024Z,18.00
2019-04-23T08:38:56.837Z,17.81
2019-04-23T08:39:52.116Z,17.52
2019-04-23T08:41:12.350Z,17.44
2019-04-23T08:42:25.038Z,17.37
2019-04-23T08:43:00.940Z,17.41
2019-04-23T08:43:56.824Z,17.37
2019-04-23T08:45:59.572Z,17.46
2019-04-23T08:47:03.628Z,17.44
2019-04-23T08:48:10.659Z,17.59
2019-04-23T08:49:06.762Z,17.59
2019-04-23T08:49:59.488Z,17.55
2019-04-23T08:51:03.462Z,17.58
2019-04-23T08:53:15.267Z,17.89
2019-04-23T08:54:02.967Z,17.92
2019-04-23T08:55:00.526Z,18.03
2019-04-23T08:55:53.649Z,18.18
2019-04-23T08:57:02.714Z,18.30
2019-04-23T08:57:56.393Z,18.08
2019-04-23T08:58:53.602Z,18.27
2019-04-23T08:59:56.065Z,18.52
2019-04-23T09:00:59.153Z,18.54
2019-04-23T09:02:15.910Z,18.27
2019-04-23T09:03:09.474Z,18.14
2019-04-23T09:04:00.416Z,18.10
2019-04-23T09:05:02.438Z,18.18
2019-04-23T09:07:04.514Z,18.33
2019-04-23T09:08:10.153Z,18.41
2019-04-23T09:08:56.790Z,18.42
2019-04-23T09:10:05.418Z,18.51
2019-04-23T09:11:30.747Z,18.51
2019-04-23T09:12:01.249Z,18.66
2019-04-23T09:13:18.263Z,18.51
2019-04-23T09:13:55.634Z,18.41
2019-04-23T09:15:01.869Z,18.54
2019-04-23T09:15:59.894Z,18.45
2019-04-23T09:17:06.882Z,18.37
2019-04-23T09:18:02.833Z,18.15
2019-04-23T09:19:02.794Z,18.20
2019-04-23T09:20:55.598Z,18.11
2019-04-23T09:22:09.011Z,18.21
2019-04-23T09:22:55.152Z,18.44
2019-04-23T09:23:59.008Z,18.65
2019-04-23T09:25:08.380Z,18.73
2019-04-23T09:25:57.813Z,18.95
2019-04-23T09:27:09.729Z,19.26
2019-04-23T09:28:00.298Z,19.14
2019-04-23T09:29:00.081Z,18.67
2019-04-23T09:30:06.872Z,18.58
2019-04-23T09:31:04.011Z,18.58
2019-04-23T09:33:00.038Z,18.72
2019-04-23T09:33:58.284Z,18.90
2019-04-23T09:35:09.770Z,19.00
2019-04-23T09:36:02.216Z,19.18
2019-04-23T09:37:08.247Z,19.02
2019-04-23T09:38:04.037Z,19.07
2019-04-23T09:39:00.501Z,18.82
2019-04-23T09:40:10.507Z,18.70
2019-04-23T09:41:14.999Z,18.72
2019-04-23T09:42:03.930Z,18.99
2019-04-23T09:43:00.535Z,19.14
2019-04-23T09:44:02.985Z,19.25
2019-04-23T09:45:13.002Z,19.31
2019-04-23T09:46:04.468Z,19.18
2019-04-23T09:49:07.529Z,19.29
2019-04-23T09:50:00.861Z,19.51
2019-04-23T09:52:00.780Z,19.51
2019-04-23T09:54:02.918Z,19.21
2019-04-23T09:55:12.004Z,19.08
2019-04-23T09:55:51.572Z,19.06
2019-04-23T09:57:10.542Z,19.10
2019-04-23T09:58:02.272Z,19.26
2019-04-23T09:59:01.193Z,19.48
2019-04-23T10:00:03.296Z,19.69
2019-04-23T10:00:51.065Z,19.14
2019-04-23T10:01:52.921Z,19.02
2019-04-23T10:02:49.787Z,19.46
2019-04-23T10:03:41.645Z,19.50
2019-04-23T10:04:48.294Z,19.98
2019-04-23T10:05:42.250Z,20.29
2019-04-23T10:06:36.463Z,20.28
2019-04-23T10:07:44.239Z,19.55
2019-04-23T10:08:38.246Z,19.37
2019-04-23T10:09:32.340Z,19.48
2019-04-23T10:10:32.471Z,19.59
2019-04-23T10:11:32.372Z,19.80
2019-04-23T10:12:32.151Z,20.01
2019-04-23T10:13:31.707Z,20.32
2019-04-23T10:14:32.408Z,20.17
2019-04-23T10:15:36.628Z,19.94
2019-04-23T10:16:34.224Z,19.95
2019-04-23T10:17:31.933Z,19.87
2019-04-23T10:18:31.080Z,19.94
2019-04-23T10:19:30.938Z,20.05
2019-04-23T10:20:30.996Z,20.20
2019-04-23T10:21:31.227Z,20.23
2019-04-23T10:22:34.009Z,20.16
2019-04-23T10:23:31.551Z,20.06
2019-04-23T10:24:31.068Z,20.38
2019-04-23T10:25:31.966Z,20.76
2019-04-23T10:26:32.266Z,21.14
2019-04-23T10:27:30.853Z,21.17
2019-04-23T10:28:31.773Z,20.58
2019-04-23T10:29:31.975Z,20.54
2019-04-23T10:30:31.200Z,21.32
2019-04-23T10:31:31.436Z,21.24
2019-04-23T10:32:31.696Z,21.29
2019-04-23T10:33:31.798Z,21.40
2019-04-23T10:34:42.997Z,21.54
2019-04-23T10:35:41.109Z,21.94
2019-04-23T10:36:32.509Z,22.21
2019-04-23T10:37:40.080Z,22.46
2019-04-23T10:38:32.790Z,22.67
2019-04-23T10:39:36.936Z,22.60
2019-04-23T10:40:36.489Z,22.58
2019-04-23T10:41:32.749Z,22.62
2019-04-23T10:42:33.315Z,22.97
2019-04-23T10:43:31.546Z,23.05
2019-04-23T10:44:32.690Z,23.00
2019-04-23T10:45:47.880Z,23.01
2019-04-23T10:46:53.131Z,22.65
2019-04-23T10:48:07.410Z,23.04
2019-04-23T10:49:11.255Z,23.50
2019-04-23T10:50:00.248Z,23.02
2019-04-23T10:50:59.692Z,22.92
2019-04-23T10:52:11.612Z,22.67
2019-04-23T10:53:11.591Z,22.45
2019-04-23T10:54:03.361Z,22.65
2019-04-23T10:55:00.778Z,22.61
2019-04-23T10:56:02.224Z,22.61
2019-04-23T10:57:02.130Z,22.58
2019-04-23T10:58:04.199Z,22.64
2019-04-23T10:58:57.734Z,22.79
2019-04-23T11:01:01.472Z,23.23
2019-04-23T11:02:16.002Z,22.82
2019-04-23T11:03:12.525Z,22.72
2019-04-23T11:04:10.059Z,22.58
2019-04-23T11:05:09.060Z,22.55
2019-04-23T11:07:12.978Z,23.43
2019-04-23T11:07:59.291Z,23.60
2019-04-23T11:09:11.428Z,23.46
2019-04-23T11:10:03.328Z,23.94
2019-04-23T11:11:03.566Z,24.42
2019-04-23T11:12:03.819Z,24.62
2019-04-23T11:12:52.203Z,23.70
2019-04-23T11:14:00.107Z,22.65
2019-04-23T11:15:09.239Z,22.42
2019-04-23T11:16:25.088Z,22.85
2019-04-23T11:17:15.528Z,22.73
2019-04-23T11:17:59.628Z,22.88
2019-04-23T11:19:15.420Z,22.25
2019-04-23T11:20:06.359Z,22.27
2019-04-23T11:20:58.274Z,22.27
2019-04-23T11:22:21.001Z,22.17
2019-04-23T11:23:04.796Z,21.79
2019-04-23T11:24:00.016Z,21.94
2019-04-23T11:25:16.082Z,22.31
2019-04-23T11:26:01.241Z,22.37
2019-04-23T11:27:01.857Z,22.98
2019-04-23T11:29:02.159Z,23.25
2019-04-23T11:30:55.773Z,22.68
2019-04-23T11:32:11.740Z,22.17
2019-04-23T11:35:14.310Z,21.58
2019-04-23T11:36:19.896Z,21.19
2019-04-23T11:37:03.376Z,21.21
2019-04-23T11:38:06.989Z,22.88
2019-04-23T11:38:16.045Z,22.00
2019-04-23T11:38:29.103Z,21.67
2019-04-23T11:40:01.101Z,21.99
2019-04-23T11:41:05.059Z,22.27
2019-04-23T11:43:11.544Z,21.82
2019-04-23T11:44:09.851Z,21.68
2019-04-23T11:45:28.129Z,21.67
2019-04-23T11:47:42.471Z,21.40
2019-04-23T11:48:33.739Z,21.50
2019-04-23T11:49:19.719Z,21.19
2019-04-23T11:50:12.239Z,21.31
2019-04-23T11:52:17.676Z,21.96
2019-04-23T11:52:56.291Z,22.06
2019-04-23T11:54:01.515Z,21.75
2019-04-23T11:55:41.271Z,22.14
2019-04-23T11:56:51.516Z,22.24
2019-04-23T11:59:12.353Z,22.27
2019-04-23T12:00:44.835Z,21.90
2019-04-23T12:01:49.888Z,21.90
2019-04-23T12:02:59.134Z,21.92
2019-04-23T12:06:12.123Z,21.61
2019-04-23T12:07:09.107Z,21.58
2019-04-23T12:08:18.877Z,21.56
2019-04-23T12:09:13.527Z,21.54
2019-04-23T12:10:17.148Z,21.47
2019-04-23T12:11:39.773Z,21.44
2019-04-23T12:12:11.248Z,21.44
2019-04-23T12:13:11.881Z,21.35
2019-04-23T12:15:16.123Z,20.36
2019-04-23T12:16:12.514Z,20.62
2019-04-23T12:17:20.943Z,20.48
2019-04-23T12:18:10.558Z,20.77
2019-04-23T12:19:33.104Z,21.22
2019-04-23T12:21:15.870Z,20.33
2019-04-23T12:23:24.837Z,21.19
2019-04-23T12:24:24.752Z,21.19
2019-04-23T12:25:17.416Z,21.22
2019-04-23T12:26:11.570Z,21.25
2019-04-23T12:27:17.077Z,20.73
2019-04-23T12:28:07.361Z,20.87
2019-04-23T12:29:13.823Z,20.80
2019-04-23T12:30:16.417Z,20.29
2019-04-23T12:31:08.789Z,20.05
2019-04-23T12:32:31.877Z,20.43
2019-04-23T12:33:15.124Z,20.32
2019-04-23T12:34:13.915Z,20.14
2019-04-23T12:36:14.574Z,20.74
2019-04-23T12:37:17.688Z,20.52
2019-04-23T12:38:07.255Z,20.28
2019-04-23T12:39:15.451Z,19.80
2019-04-23T12:40:15.381Z,19.63
2019-04-23T12:41:10.143Z,19.95
2019-04-23T12:42:27.847Z,20.16
2019-04-23T12:43:19.302Z,20.61
2019-04-23T12:44:08.366Z,20.35
2019-04-23T12:45:14.318Z,20.17
2019-04-23T12:46:08.865Z,20.16
2019-04-23T12:47:14.470Z,20.02
2019-04-23T12:49:28.725Z,20.38
2019-04-23T12:51:08.382Z,20.06
2019-04-23T12:52:12.666Z,20.03
2019-04-23T12:53:12.482Z,19.91
2019-04-23T12:54:23.860Z,19.94
2019-04-23T12:56:11.315Z,19.66
2019-04-23T12:57:12.877Z,19.59
2019-04-23T12:58:09.954Z,19.78
2019-04-23T12:59:09.478Z,19.80
2019-04-23T13:00:22.458Z,19.84
2019-04-23T13:01:09.418Z,20.13
2019-04-23T13:02:16.089Z,20.17
2019-04-23T13:03:02.636Z,20.10
2019-04-23T13:04:16.039Z,20.18
2019-04-23T13:05:11.851Z,20.69
2019-04-23T13:05:59.167Z,20.80
2019-04-23T13:07:11.354Z,20.67
2019-04-23T13:08:08.649Z,20.11
2019-04-23T13:09:19.529Z,20.02
2019-04-23T13:10:13.233Z,20.14
2019-04-23T13:11:07.681Z,20.76
2019-04-23T13:12:16.641Z,20.97
2019-04-23T13:14:07.155Z,21.12
2019-04-23T13:15:11.521Z,21.01
2019-04-23T13:16:12.351Z,21.09
2019-04-23T13:17:09.663Z,21.44
2019-04-23T13:18:23.605Z,21.24
2019-04-23T13:19:14.734Z,21.42
2019-04-23T13:20:14.599Z,21.31
2019-04-23T13:21:13.314Z,21.03
2019-04-23T13:22:11.522Z,20.77
2019-04-23T13:23:10.852Z,20.82
2019-04-23T13:24:11.446Z,20.64
2019-04-23T13:25:15.405Z,20.54
2019-04-23T13:25:59.803Z,20.29
2019-04-23T13:27:15.638Z,20.73
2019-04-23T13:28:21.667Z,20.59
2019-04-23T13:29:11.059Z,20.85
2019-04-23T13:30:06.784Z,20.74
2019-04-23T13:31:10.537Z,20.79
2019-04-23T13:32:02.531Z,20.66
2019-04-23T13:33:26.756Z,20.99
2019-04-23T13:34:06.935Z,20.97
2019-04-23T13:35:25.721Z,20.80
2019-04-23T13:36:18.784Z,21.46
2019-04-23T13:37:15.917Z,21.77
2019-04-23T13:39:14.740Z,20.92
2019-04-23T13:40:09.233Z,21.09
2019-04-23T13:42:17.551Z,21.49
2019-04-23T13:43:25.635Z,21.25
2019-04-23T13:44:08.507Z,21.22
2019-04-23T13:45:28.052Z,21.01
2019-04-23T13:47:15.684Z,20.32
2019-04-23T13:48:06.806Z,20.14
2019-04-23T13:49:03.904Z,19.86
2019-04-23T13:50:10.849Z,19.84
2019-04-23T13:51:19.819Z,19.84
2019-04-23T13:52:37.861Z,19.63
2019-04-23T13:54:13.805Z,19.11
2019-04-23T13:56:15.264Z,18.94
2019-04-23T14:00:07.106Z,19.25
2019-04-23T14:02:17.429Z,19.25
2019-04-23T14:03:03.529Z,19.25
2019-04-23T14:04:12.368Z,19.23
2019-04-23T14:05:10.607Z,19.51
2019-04-23T14:06:18.194Z,19.39
2019-04-23T14:07:17.844Z,19.59
2019-04-23T14:08:13.017Z,19.58
2019-04-23T14:09:11.964Z,19.37
2019-04-23T14:10:20.109Z,19.29
2019-04-23T14:11:10.817Z,19.41
2019-04-23T14:12:09.038Z,19.26
2019-04-23T14:13:28.581Z,19.28
2019-04-23T14:14:16.704Z,19.25
2019-04-23T14:15:12.311Z,19.04
2019-04-23T14:16:29.129Z,19.04
2019-04-23T14:17:18.733Z,18.99
2019-04-23T14:18:29.345Z,18.95
2019-04-23T14:20:07.136Z,18.82
2019-04-23T14:21:14.250Z,18.87
2019-04-23T14:22:30.261Z,18.82
2019-04-23T14:24:59.383Z,18.70
2019-04-23T14:25:08.008Z,18.76
2019-04-23T14:26:27.698Z,18.75
2019-04-23T14:27:14.892Z,18.65
2019-04-23T14:29:13.123Z,18.50
2019-04-23T14:30:13.742Z,18.45
2019-04-23T14:31:04.833Z,18.51
2019-04-23T14:32:08.772Z,18.62
2019-04-23T14:33:15.437Z,18.57
2019-04-23T14:34:19.028Z,18.58
2019-04-23T14:36:17.802Z,18.51
2019-04-23T14:38:41.155Z,18.45
2019-04-23T14:39:40.215Z,18.33
2019-04-23T14:41:16.489Z,18.30
2019-04-23T14:42:21.457Z,18.21
2019-04-23T14:43:48.699Z,18.11
2019-04-23T14:44:43.956Z,18.15
2019-04-23T14:48:46.605Z,17.82
2019-04-23T14:49:59.300Z,17.84
2019-04-23T14:52:23.328Z,17.72
2019-04-23T14:53:46.512Z,17.82
2019-04-23T14:55:31.547Z,17.72
2019-04-23T14:57:30.432Z,17.63
2019-04-23T14:59:53.413Z,17.66
2019-04-23T15:01:35.521Z,17.48
2019-04-23T15:02:25.636Z,17.51
2019-04-23T15:03:48.983Z,17.43
2019-04-23T15:04:54.412Z,17.41
2019-04-23T15:06:43.820Z,17.38
2019-04-23T15:07:28.460Z,17.46
2019-04-23T15:09:10.932Z,17.41
2019-04-23T15:10:01.212Z,17.41
2019-04-23T15:11:14.939Z,17.43